Time;durP1;ratioP1;P1;durP2;ratioP2;P2;SDS_P1;SDS_P2;PMS_P1;PMS_P2;Temp;Humidity;BMP_temperature;BMP_pressure;BME280_temperature;BME280_humidity;BME280_pressure;Samples;Min_cycle;Max_cycle;Signal;HPM_P1;HPM_P2
2021/06/08 00:01:49;;;;;;;8.35;5.35;;;;;;;22.28;45.80;102015.94;5114850;28;20380;-58
2021/06/08 00:04:15;;;;;;;10.30;5.70;;;;;;;22.25;45.73;102019.00;5115579;28;20049;-59
2021/06/08 00:06:41;;;;;;;8.80;6.30;;;;;;;22.20;45.87;102018.69;5114861;28;20387;-58
2021/06/08 00:09:06;;;;;;;13.20;6.07;;;;;;;22.20;46.25;102018.69;5114939;28;20107;-58
2021/06/08 00:11:32;;;;;;;10.50;5.85;;;;;;;22.19;45.60;102025.22;5115258;28;20024;-58
2021/06/08 00:13:57;;;;;;;7.35;5.13;;;;;;;22.14;45.66;102030.31;5097385;28;20031;-58
2021/06/08 00:16:23;;;;;;;6.88;4.82;;;;;;;22.13;45.77;102030.50;5116319;28;20084;-59
2021/06/08 00:18:48;;;;;;;6.95;4.90;;;;;;;22.09;46.24;102027.25;5080260;28;20036;-58
2021/06/08 00:21:14;;;;;;;11.15;5.25;;;;;;;22.08;45.85;102028.31;5102882;27;20051;-58
2021/06/08 00:23:39;;;;;;;9.05;5.28;;;;;;;22.06;46.10;102033.06;5134709;27;20023;-58
2021/06/08 00:26:05;;;;;;;9.52;5.72;;;;;;;22.04;46.64;102029.69;5135700;27;20119;-59
2021/06/08 00:28:30;;;;;;;8.07;5.72;;;;;;;21.98;46.87;102024.91;5135481;27;20023;-58
2021/06/08 00:30:55;;;;;;;8.30;5.05;;;;;;;21.97;46.00;102021.31;5116618;27;20034;-58
2021/06/08 00:33:21;;;;;;;10.95;6.43;;;;;;;21.99;46.68;102029.34;5135324;27;20102;-58
2021/06/08 00:35:46;;;;;;;10.85;6.18;;;;;;;21.94;46.06;102013.47;5135161;27;20035;-58
2021/06/08 00:38:12;;;;;;;7.38;5.75;;;;;;;21.96;46.07;102029.69;5135416;27;20099;-58
2021/06/08 00:40:44;;;;;;;8.80;5.45;;;;;;;21.89;46.56;102010.44;5135080;27;20110;-58
2021/06/08 00:43:10;;;;;;;7.90;4.90;;;;;;;21.88;46.75;102013.34;5132934;27;20027;-58
2021/06/08 00:45:35;;;;;;;6.13;4.57;;;;;;;21.86;46.24;102020.84;5135135;27;20034;-58
2021/06/08 00:48:01;;;;;;;7.57;5.13;;;;;;;21.83;46.61;102022.00;5134800;28;20080;-58
2021/06/08 00:50:27;;;;;;;8.13;4.47;;;;;;;21.82;46.30;102024.91;5116340;28;20081;-59
2021/06/08 00:52:52;;;;;;;7.80;4.95;;;;;;;21.76;46.48;102025.59;5134120;28;20023;-58
2021/06/08 00:55:19;;;;;;;10.48;5.47;;;;;;;21.75;46.65;102027.47;5134579;27;20099;-58
2021/06/08 00:57:44;;;;;;;12.25;4.93;;;;;;;21.74;47.22;102019.47;5134654;27;20034;-58
2021/06/08 01:00:10;;;;;;;10.00;5.47;;;;;;;21.71;46.25;102022.53;5134603;27;20437;-58
2021/06/08 01:02:36;;;;;;;8.60;5.22;;;;;;;21.69;46.20;102024.59;5134549;27;20034;-58
2021/06/08 01:05:06;;;;;;;9.30;6.60;;;;;;;21.62;46.83;102018.13;5134128;28;20062;-58
2021/06/08 01:07:33;;;;;;;9.25;5.45;;;;;;;21.65;46.69;102031.41;5133471;28;20019;-57
2021/06/08 01:09:59;;;;;;;7.47;4.85;;;;;;;21.62;47.20;102029.88;5133444;28;20019;-58
2021/06/08 01:12:25;;;;;;;7.82;5.28;;;;;;;21.58;46.04;102031.25;5134709;27;20087;-58
2021/06/08 01:14:51;;;;;;;8.77;5.40;;;;;;;21.56;46.63;102035.16;5133432;28;20023;-58
2021/06/08 01:17:16;;;;;;;11.40;5.40;;;;;;;21.51;46.58;102018.47;5134847;27;20080;-58
2021/06/08 01:19:41;;;;;;;9.30;5.43;;;;;;;21.54;46.77;102026.31;5134467;27;20024;-58
2021/06/08 01:22:07;;;;;;;10.55;6.13;;;;;;;21.52;46.87;102033.81;5134489;27;20039;-59
2021/06/08 01:24:32;;;;;;;7.93;5.50;;;;;;;21.50;46.91;102035.88;5134876;27;20027;-58
2021/06/08 01:26:58;;;;;;;7.28;4.85;;;;;;;21.48;46.26;102034.16;5133442;28;20061;-59
2021/06/08 01:29:24;;;;;;;11.00;5.20;;;;;;;21.45;46.79;102034.50;5133674;28;20027;-58
2021/06/08 01:31:50;;;;;;;6.38;3.58;;;;;;;21.42;46.72;102037.56;5134788;27;20102;-58
2021/06/08 01:34:16;;;;;;;6.35;4.75;;;;;;;21.39;47.03;102034.31;5133641;28;20047;-59
2021/06/08 01:36:42;;;;;;;7.93;5.65;;;;;;;21.37;46.95;102037.22;5134638;27;20472;-58
2021/06/08 01:39:07;;;;;;;7.63;5.20;;;;;;;21.36;46.80;102035.50;5134703;27;20026;-58
2021/06/08 01:41:33;;;;;;;9.25;6.05;;;;;;;21.34;47.43;102037.56;5125971;28;20027;-58
2021/06/08 01:43:59;;;;;;;12.10;7.72;;;;;;;21.30;46.58;102036.19;5133346;28;20027;-58
2021/06/08 01:46:25;;;;;;;16.98;6.05;;;;;;;21.30;46.73;102030.72;5133378;28;20094;-58
2021/06/08 01:48:51;;;;;;;10.02;5.03;;;;;;;21.27;46.49;102031.06;5134831;27;20475;-59
2021/06/08 01:51:55;;;;;;;9.27;6.55;;;;;;;21.23;47.27;102035.16;5134723;27;20030;-58
2021/06/08 01:54:24;;;;;;;9.15;6.18;;;;;;;21.18;47.32;102032.09;5133398;27;20018;-58
2021/06/08 01:56:59;;;;;;;8.50;5.65;;;;;;;21.16;46.81;102039.56;5138630;27;20027;-58
2021/06/08 01:59:29;;;;;;;10.20;5.78;;;;;;;21.13;46.90;102028.19;5136874;27;20051;-58
2021/06/08 02:02:03;;;;;;;9.13;6.63;;;;;;;21.06;47.73;102022.50;5136512;27;20518;-58
2021/06/08 02:04:38;;;;;;;13.55;6.22;;;;;;;21.07;46.95;102029.69;5137786;27;20027;-58
2021/06/08 02:07:27;;;;;;;9.95;5.85;;;;;;;21.08;47.16;102034.13;5136457;27;20122;-58
2021/06/08 02:10:34;;;;;;;10.98;7.32;;;;;;;21.07;47.13;102037.88;5123113;27;20395;-57
2021/06/08 02:13:12;;;;;;;11.70;7.40;;;;;;;21.04;47.26;102040.91;5126650;27;20117;-59
2021/06/08 02:15:41;;;;;;;10.85;7.20;;;;;;;21.05;47.24;102037.13;5137700;27;20152;-58
2021/06/08 02:18:08;;;;;;;7.38;5.63;;;;;;;21.06;47.03;102043.44;5136556;27;20123;-58
2021/06/08 02:20:35;;;;;;;15.52;6.00;;;;;;;21.04;46.99;102046.34;5136588;27;20035;-58
2021/06/08 02:23:03;;;;;;;10.48;7.20;;;;;;;21.01;47.19;102045.81;5137886;27;20082;-58
2021/06/08 02:25:30;;;;;;;10.20;7.07;;;;;;;21.01;46.92;102046.69;5136377;27;20019;-58
2021/06/08 02:27:57;;;;;;;9.25;6.45;;;;;;;21.00;47.30;102028.63;5136478;27;20019;-58
2021/06/08 02:30:24;;;;;;;10.48;6.45;;;;;;;20.98;47.51;102030.66;5136668;27;20057;-57
2021/06/08 02:32:50;;;;;;;10.85;6.45;;;;;;;20.95;46.88;102033.72;5136024;27;20176;-59
2021/06/08 02:35:17;;;;;;;7.40;5.55;;;;;;;20.92;47.64;102031.34;5118790;27;20030;-59
2021/06/08 02:37:43;;;;;;;9.27;4.72;;;;;;;20.92;47.18;102037.63;5136259;27;20387;-58
2021/06/08 02:40:10;;;;;;;6.88;4.25;;;;;;;20.89;47.34;102039.84;5118664;27;20051;-58
2021/06/08 02:42:35;;;;;;;5.88;4.50;;;;;;;20.86;47.37;102042.88;5135896;27;20031;-58
2021/06/08 02:45:03;;;;;;;6.90;3.67;;;;;;;20.85;47.04;102047.47;5136048;27;20114;-58
2021/06/08 02:47:29;;;;;;;5.95;4.55;;;;;;;20.83;47.72;102054.13;5135985;27;20035;-58
2021/06/08 02:49:55;;;;;;;13.25;7.70;;;;;;;20.80;47.32;102051.72;5136103;27;20027;-58
2021/06/08 02:52:21;;;;;;;7.72;5.45;;;;;;;20.79;47.61;102052.75;5135802;27;20077;-58
2021/06/08 02:54:49;;;;;;;9.10;5.70;;;;;;;20.76;47.87;102053.94;5136019;27;20483;-59
2021/06/08 02:57:14;;;;;;;12.07;7.20;;;;;;;20.74;47.16;102050.50;5135944;27;20031;-58
2021/06/08 02:59:42;;;;;;;10.48;6.97;;;;;;;20.74;47.43;102050.50;5135483;27;20052;-58
2021/06/08 03:02:12;;;;;;;10.85;7.55;;;;;;;20.72;47.54;102057.16;5135735;27;20019;-58
2021/06/08 03:04:45;;;;;;;12.07;6.82;;;;;;;20.68;47.36;102053.94;5118340;27;20053;-57
2021/06/08 03:07:11;;;;;;;12.48;7.82;;;;;;;20.66;47.73;102052.38;5135432;27;20106;-58
2021/06/08 03:09:40;;;;;;;12.18;7.88;;;;;;;20.67;47.34;102064.97;5135602;27;20078;-57
2021/06/08 03:12:10;;;;;;;12.35;7.55;;;;;;;20.67;47.57;102065.81;5136024;27;20034;-57
2021/06/08 03:14:37;;;;;;;10.02;6.90;;;;;;;20.66;47.73;102063.28;5136028;27;20023;-58
2021/06/08 03:17:04;;;;;;;10.35;6.45;;;;;;;20.65;47.45;102061.56;5135738;27;20495;-58
2021/06/08 03:19:32;;;;;;;11.20;5.82;;;;;;;20.61;47.54;102052.00;5135517;27;20030;-58
2021/06/08 03:22:02;;;;;;;6.13;4.50;;;;;;;20.59;47.73;102056.78;5135390;27;20408;-57
2021/06/08 03:24:31;;;;;;;7.03;5.35;;;;;;;20.59;47.64;102062.22;5136705;27;20046;-58
2021/06/08 03:26:58;;;;;;;6.72;5.15;;;;;;;20.56;47.69;102057.09;5136837;27;20369;-59
2021/06/08 03:29:24;;;;;;;6.45;4.38;;;;;;;20.53;47.91;102062.88;5135611;27;20035;-58
2021/06/08 03:31:49;;;;;;;9.55;6.03;;;;;;;20.53;48.15;102068.31;5101009;27;20038;-58
2021/06/08 03:34:16;;;;;;;8.57;4.90;;;;;;;20.51;47.79;102060.31;5135502;27;20033;-58
2021/06/08 03:36:52;;;;;;;9.68;6.40;;;;;;;20.51;47.68;102059.47;5135840;27;20027;-58
2021/06/08 03:39:19;;;;;;;11.23;6.93;;;;;;;20.51;47.63;102059.47;5134929;27;20097;-59
2021/06/08 03:41:46;;;;;;;7.47;5.15;;;;;;;20.52;47.79;102066.63;5117614;27;20027;-58
2021/06/08 03:44:15;;;;;;;6.78;4.38;;;;;;;20.50;48.12;102063.19;5136219;27;20027;-57
2021/06/08 03:46:41;;;;;;;7.15;4.88;;;;;;;20.45;47.75;102057.38;5136114;27;20121;-58
2021/06/08 03:49:07;;;;;;;12.80;5.03;;;;;;;20.49;47.77;102064.22;5135019;27;20383;-57
2021/06/08 03:51:33;;;;;;;9.23;5.25;;;;;;;20.49;47.72;102067.78;5134915;27;20027;-58
2021/06/08 03:53:59;;;;;;;13.30;7.63;;;;;;;20.50;48.02;102065.91;5134769;27;20024;-58
2021/06/08 03:56:25;;;;;;;14.00;7.65;;;;;;;20.51;48.13;102067.63;5136759;27;20023;-57
2021/06/08 03:58:53;;;;;;;12.75;7.05;;;;;;;20.53;47.89;102062.88;5117278;27;20436;-58
2021/06/08 04:01:20;;;;;;;9.65;6.03;;;;;;;20.55;47.76;102071.72;5135760;27;20023;-58
2021/06/08 04:03:46;;;;;;;10.65;7.40;;;;;;;20.53;48.01;102068.31;5117642;27;20027;-58
2021/06/08 04:06:15;;;;;;;12.93;8.20;;;;;;;20.57;47.81;102070.56;5134565;27;20087;-58
2021/06/08 04:08:40;;;;;;;12.70;8.00;;;;;;;20.61;47.74;102065.63;5117297;27;20031;-58
2021/06/08 04:11:06;;;;;;;9.73;7.15;;;;;;;20.63;48.25;102058.97;5135591;27;20064;-58
2021/06/08 04:13:31;;;;;;;10.23;6.20;;;;;;;20.66;47.95;102061.38;5136470;27;20026;-58
2021/06/08 04:15:57;;;;;;;10.40;6.85;;;;;;;20.69;48.02;102060.19;5134170;27;20031;-58
2021/06/08 04:18:22;;;;;;;10.02;7.38;;;;;;;20.75;47.79;102068.56;5133610;27;20054;-58
2021/06/08 04:20:52;;;;;;;8.95;5.75;;;;;;;20.81;48.04;102056.16;5134143;27;20031;-58
2021/06/08 04:23:23;;;;;;;8.95;6.28;;;;;;;20.88;47.97;102060.78;5133964;27;20092;-58
2021/06/08 04:25:48;;;;;;;14.13;7.80;;;;;;;20.96;47.99;102062.69;5135325;27;20160;-58
2021/06/08 04:28:14;;;;;;;13.73;8.38;;;;;;;21.03;48.09;102062.84;5135056;27;20105;-57
2021/06/08 04:30:40;;;;;;;10.23;7.10;;;;;;;21.09;47.88;102065.81;5135288;27;20027;-57
2021/06/08 04:33:05;;;;;;;15.15;7.82;;;;;;;21.16;48.14;102061.38;5116637;27;20031;-58
2021/06/08 04:35:30;;;;;;;10.82;7.63;;;;;;;21.27;47.92;102061.03;5134107;27;20136;-58
2021/06/08 04:37:56;;;;;;;12.43;8.20;;;;;;;21.38;48.36;102058.00;5135009;27;20082;-58
2021/06/08 04:40:23;;;;;;;11.68;8.20;;;;;;;21.46;48.42;102057.16;5134786;27;20031;-59
2021/06/08 04:42:49;;;;;;;11.60;7.80;;;;;;;21.60;48.06;102063.81;5133693;28;20030;-57
2021/06/08 04:45:16;;;;;;;10.43;7.20;;;;;;;21.73;48.30;102064.13;5135066;27;20031;-58
2021/06/08 04:47:41;;;;;;;14.85;8.73;;;;;;;21.85;47.83;102058.16;5134388;27;20031;-58
2021/06/08 04:50:09;;;;;;;11.18;7.28;;;;;;;21.98;48.70;102054.94;5135210;27;20027;-58
2021/06/08 04:52:34;;;;;;;10.52;7.35;;;;;;;22.10;48.40;102059.00;5134686;27;20058;-58
2021/06/08 04:55:00;;;;;;;12.75;7.53;;;;;;;22.21;48.03;102053.19;5116531;28;20436;-58
2021/06/08 04:57:26;;;;;;;10.50;7.68;;;;;;;22.36;48.73;102056.03;5134550;27;20035;-58
2021/06/08 04:59:53;;;;;;;13.80;8.25;;;;;;;22.49;48.86;102057.19;5133087;28;20037;-59
2021/06/08 05:02:43;;;;;;;19.10;8.43;;;;;;;22.69;47.86;102056.78;5133193;28;20027;-59
2021/06/08 05:05:13;;;;;;;16.88;7.68;;;;;;;22.82;48.24;102057.03;5120753;28;20377;-60
2021/06/08 05:07:44;;;;;;;13.30;9.23;;;;;;;22.96;48.22;102054.41;5134055;28;20094;-59
2021/06/08 05:10:12;;;;;;;14.00;8.35;;;;;;;23.10;47.62;102060.97;5132994;28;20026;-59
2021/06/08 05:12:40;;;;;;;12.20;8.07;;;;;;;23.23;48.47;102063.94;5133105;28;20388;-59
2021/06/08 05:15:06;;;;;;;12.63;8.60;;;;;;;23.35;47.86;102065.25;5132913;28;20027;-59
2021/06/08 05:17:32;;;;;;;16.23;7.90;;;;;;;23.51;48.18;102061.56;5132957;28;20031;-59
2021/06/08 05:19:58;;;;;;;17.77;8.77;;;;;;;23.63;47.11;102060.94;5132957;28;20054;-59
2021/06/08 05:22:24;;;;;;;11.73;8.45;;;;;;;23.78;48.07;102056.34;5132500;28;20518;-60
2021/06/08 05:24:51;;;;;;;12.77;8.65;;;;;;;23.94;47.39;102051.75;5134346;28;20395;-59
2021/06/08 05:27:18;;;;;;;14.80;9.05;;;;;;;24.07;47.12;102065.63;5132886;28;20035;-59
2021/06/08 05:29:43;;;;;;;14.48;9.77;;;;;;;24.19;47.56;102061.44;5135719;27;20439;-60
2021/06/08 05:32:11;;;;;;;13.55;9.50;;;;;;;24.34;46.70;102065.88;5133631;27;20027;-59
2021/06/08 05:34:41;;;;;;;14.23;9.82;;;;;;;24.46;47.08;102058.03;5138190;27;20027;-59
2021/06/08 05:37:11;;;;;;;14.48;9.93;;;;;;;24.60;46.68;102059.06;5126053;27;20053;-59
2021/06/08 05:39:40;;;;;;;14.50;9.55;;;;;;;24.75;46.64;102070.88;5099072;28;20442;-60
2021/06/08 05:42:07;;;;;;;15.52;10.10;;;;;;;24.93;46.25;102070.50;5099536;28;20027;-59
2021/06/08 05:44:34;;;;;;;18.63;10.00;;;;;;;25.09;46.42;102068.38;5117461;28;20027;-59
2021/06/08 05:47:02;;;;;;;14.95;10.75;;;;;;;25.26;46.16;102069.81;5117443;28;20028;-59
2021/06/08 05:49:27;;;;;;;17.85;10.63;;;;;;;25.47;46.34;102079.97;5117328;28;20016;-59
2021/06/08 05:51:54;;;;;;;16.48;9.85;;;;;;;25.63;45.58;102081.63;5116201;27;20037;-59
2021/06/08 05:54:19;;;;;;;15.13;9.63;;;;;;;25.80;45.48;102083.00;5115776;28;20024;-60
2021/06/08 05:56:45;;;;;;;15.82;9.68;;;;;;;25.96;45.44;102083.56;5115773;28;20046;-60
2021/06/08 05:59:14;;;;;;;17.27;10.50;;;;;;;26.15;45.25;102075.72;5098661;28;20031;-59
2021/06/08 06:01:40;;;;;;;18.08;10.00;;;;;;;26.36;44.52;102081.13;5116433;28;20031;-60
2021/06/08 06:04:05;;;;;;;17.42;9.77;;;;;;;26.56;44.57;102073.84;5117585;28;20364;-60
2021/06/08 06:06:31;;;;;;;18.92;9.32;;;;;;;26.77;44.57;102070.16;5115907;27;20035;-59
2021/06/08 06:08:56;;;;;;;17.05;10.30;;;;;;;26.98;44.50;102073.66;5116804;28;20035;-59
2021/06/08 06:11:22;;;;;;;13.57;9.25;;;;;;;27.16;43.96;102068.38;5115860;28;20023;-60
2021/06/08 06:14:10;;;;;;;17.88;10.73;;;;;;;27.44;43.56;102089.47;5116055;28;20020;-59
2021/06/08 06:16:49;;;;;;;13.00;9.60;;;;;;;27.65;43.53;102070.00;5116753;28;20388;-59
2021/06/08 06:19:14;;;;;;;16.40;9.43;;;;;;;27.89;43.10;102071.28;5116838;28;20040;-58
2021/06/08 06:21:40;;;;;;;16.65;10.18;;;;;;;28.14;42.90;102078.69;5114995;28;20092;-60
2021/06/08 06:24:06;;;;;;;15.05;10.15;;;;;;;28.37;42.70;102074.59;5098659;28;20030;-60
2021/06/08 06:26:33;;;;;;;14.13;9.45;;;;;;;28.59;41.59;102073.25;5129559;27;20484;-59
2021/06/08 06:28:59;;;;;;;18.20;9.77;;;;;;;28.77;41.26;102068.78;5118588;27;20027;-59
2021/06/08 06:31:26;;;;;;;17.05;9.68;;;;;;;28.96;40.83;102064.22;5137437;27;20043;-59
2021/06/08 06:33:54;;;;;;;12.40;8.50;;;;;;;29.18;41.09;102073.88;5151773;27;20026;-59
2021/06/08 06:36:21;;;;;;;10.65;8.20;;;;;;;29.38;40.08;102069.09;5139511;27;20019;-60
2021/06/08 06:38:49;;;;;;;13.68;8.82;;;;;;;29.54;40.66;102072.41;5121919;27;20061;-59
2021/06/08 06:41:14;;;;;;;9.82;7.88;;;;;;;29.76;39.77;102077.31;5138168;27;20085;-59
2021/06/08 06:43:44;;;;;;;11.48;7.68;;;;;;;29.95;39.65;102078.25;5097965;28;20388;-59
2021/06/08 06:46:09;;;;;;;14.05;7.68;;;;;;;30.13;39.40;102078.28;5098228;27;20033;-59
2021/06/08 06:48:35;;;;;;;16.83;10.23;;;;;;;30.30;39.60;102081.28;5136851;27;20110;-59
2021/06/08 06:51:00;;;;;;;15.77;10.25;;;;;;;30.44;39.11;102077.34;5118689;27;20054;-60
2021/06/08 06:53:26;;;;;;;16.48;10.00;;;;;;;30.63;39.13;102073.50;5118552;27;20026;-59
2021/06/08 06:55:52;;;;;;;16.20;9.57;;;;;;;30.80;38.87;102080.09;5118438;27;20031;-60
2021/06/08 06:58:18;;;;;;;16.10;10.02;;;;;;;30.97;38.58;102075.66;5118111;27;20020;-60
2021/06/08 07:00:44;;;;;;;16.45;10.43;;;;;;;31.13;38.44;102079.69;5116525;28;20081;-59
2021/06/08 07:03:11;;;;;;;16.08;9.88;;;;;;;31.24;37.90;102070.56;5082212;28;20031;-60
2021/06/08 07:05:37;;;;;;;17.50;10.35;;;;;;;31.42;38.08;102072.44;5130446;27;20429;-60
2021/06/08 07:08:04;;;;;;;24.42;11.57;;;;;;;31.52;37.89;102067.22;5118705;27;20018;-60
2021/06/08 07:10:33;;;;;;;14.23;8.80;;;;;;;31.66;37.38;102075.06;5118508;27;20053;-59
2021/06/08 07:13:05;;;;;;;14.82;9.70;;;;;;;31.83;37.16;102080.75;5121222;27;20031;-59
2021/06/08 07:15:31;;;;;;;15.65;9.70;;;;;;;31.98;37.34;102077.50;5118778;27;20164;-59
2021/06/08 07:17:56;;;;;;;15.63;9.77;;;;;;;32.12;36.85;102084.53;5137171;27;20118;-59
2021/06/08 07:20:24;;;;;;;16.10;9.10;;;;;;;32.20;36.57;102071.16;5137957;27;20031;-59
2021/06/08 07:22:49;;;;;;;14.10;10.00;;;;;;;32.39;36.56;102074.63;5114877;28;20396;-59
2021/06/08 07:25:16;;;;;;;16.98;9.90;;;;;;;32.52;35.54;102079.94;5115560;27;20024;-60
2021/06/08 07:27:42;;;;;;;16.27;8.73;;;;;;;32.65;35.88;102074.16;5110219;28;20034;-57
2021/06/08 07:30:08;;;;;;;15.43;8.30;;;;;;;32.80;35.14;102071.66;5115692;28;20012;-57
2021/06/08 07:32:41;;;;;;;13.52;8.80;;;;;;;32.98;35.67;102075.34;5080316;28;20031;-58
2021/06/08 07:35:10;;;;;;;14.00;7.82;;;;;;;33.13;35.00;102076.56;5114701;28;20058;-58
2021/06/08 07:37:40;;;;;;;13.82;7.75;;;;;;;33.28;34.00;102082.38;5115109;28;20020;-58
2021/06/08 07:40:11;;;;;;;12.55;8.18;;;;;;;33.42;34.63;102080.13;5093323;28;20039;-58
2021/06/08 07:42:43;;;;;;;21.23;9.57;;;;;;;33.59;34.40;102086.59;5088933;28;20031;-57
2021/06/08 07:45:10;;;;;;;17.50;9.20;;;;;;;33.71;34.53;102081.81;5113889;28;20015;-57
2021/06/08 07:47:36;;;;;;;13.75;8.40;;;;;;;33.84;34.48;102080.59;5117066;27;20023;-57
2021/06/08 07:50:06;;;;;;;13.60;8.07;;;;;;;34.01;33.10;102083.38;5135456;27;20365;-58
2021/06/08 07:52:32;;;;;;;14.38;8.77;;;;;;;34.13;33.31;102075.81;5135465;27;20119;-58
2021/06/08 07:54:58;;;;;;;11.45;8.32;;;;;;;34.23;33.00;102076.81;5136238;27;20043;-58
2021/06/08 07:57:24;;;;;;;7.50;6.55;;;;;;;34.41;33.34;102084.03;5135271;27;20054;-58
2021/06/08 07:59:50;;;;;;;8.60;6.90;;;;;;;34.52;33.51;102075.56;5134938;27;20411;-58
2021/06/08 08:02:20;;;;;;;10.05;6.93;;;;;;;34.67;32.40;102083.31;5117248;27;20090;-57
2021/06/08 08:04:51;;;;;;;9.95;7.30;;;;;;;34.74;33.27;102071.97;5135261;27;20479;-57
2021/06/08 08:07:23;;;;;;;9.25;7.35;;;;;;;34.89;32.71;102075.78;5135703;27;20054;-58
2021/06/08 08:09:55;;;;;;;10.02;5.78;;;;;;;35.01;31.73;102068.13;5134535;27;20429;-58
2021/06/08 08:12:22;;;;;;;7.67;5.60;;;;;;;35.13;31.55;102067.16;5135389;27;20042;-58
2021/06/08 08:14:48;;;;;;;7.78;4.80;;;;;;;35.23;31.93;102070.06;5116753;27;20023;-58
2021/06/08 08:17:15;;;;;;;7.65;5.15;;;;;;;35.35;31.19;102067.94;5134311;27;20495;-58
2021/06/08 08:19:41;;;;;;;6.25;4.45;;;;;;;35.49;30.82;102069.19;5117094;27;20062;-58
2021/06/08 08:22:07;;;;;;;8.00;4.95;;;;;;;35.60;30.92;102076.56;5116768;27;20050;-59
2021/06/08 08:24:48;;;;;;;6.88;4.25;;;;;;;35.64;30.56;102061.84;5080582;27;20134;-58
2021/06/08 08:27:14;;;;;;;5.88;5.07;;;;;;;35.76;31.00;102058.03;5134993;27;20057;-58
2021/06/08 08:29:41;;;;;;;6.13;4.35;;;;;;;35.88;30.75;102067.88;5135154;27;20044;-57
2021/06/08 08:32:07;;;;;;;5.70;3.67;;;;;;;35.97;30.17;102066.28;5104714;28;20035;-58
2021/06/08 08:34:33;;;;;;;6.63;3.88;;;;;;;36.03;29.70;102054.09;5130641;27;20038;-58
2021/06/08 08:36:59;;;;;;;7.05;4.70;;;;;;;36.19;29.90;102058.66;5134385;27;20034;-58
2021/06/08 08:39:24;;;;;;;4.15;3.60;;;;;;;36.34;29.73;102059.84;5134776;27;20059;-58
2021/06/08 08:41:52;;;;;;;4.40;3.35;;;;;;;36.50;29.41;102045.72;5134721;27;20405;-59
2021/06/08 08:44:20;;;;;;;3.40;2.53;;;;;;;36.62;28.88;102045.50;5135073;28;20116;-59
2021/06/08 08:46:46;;;;;;;4.15;3.17;;;;;;;36.71;29.09;102038.28;5116275;28;20076;-57
2021/06/08 08:49:11;;;;;;;4.35;3.47;;;;;;;36.85;28.52;102041.41;5135478;28;20035;-58
2021/06/08 08:51:42;;;;;;;5.68;3.65;;;;;;;36.98;28.16;102044.53;5116361;28;20027;-58
2021/06/08 08:54:09;;;;;;;6.15;3.97;;;;;;;37.08;27.97;102038.97;5134895;28;20034;-58
2021/06/08 08:56:36;;;;;;;4.32;3.55;;;;;;;37.16;28.23;102041.22;5134589;28;20065;-58
2021/06/08 08:59:14;;;;;;;5.20;3.50;;;;;;;37.21;27.49;102035.66;5135287;28;20106;-58
2021/06/08 09:01:42;;;;;;;5.68;3.90;;;;;;;37.31;28.31;102037.59;5134507;28;20029;-57
2021/06/08 09:04:08;;;;;;;4.00;3.13;;;;;;;37.37;27.59;102035.66;5135951;27;20023;-58
2021/06/08 09:06:34;;;;;;;6.78;2.72;;;;;;;37.46;27.33;102039.59;5139146;27;20031;-58
2021/06/08 09:09:01;;;;;;;5.15;3.35;;;;;;;37.57;27.18;102035.69;5138787;27;20034;-58
2021/06/08 09:11:28;;;;;;;3.45;3.15;;;;;;;37.68;26.65;102026.16;5120614;27;20050;-58
2021/06/08 09:13:53;;;;;;;5.18;3.50;;;;;;;37.78;26.53;102031.75;5120514;27;20034;-58
2021/06/08 09:16:19;;;;;;;4.35;3.30;;;;;;;37.83;26.10;102018.59;5138846;27;20031;-59
2021/06/08 09:18:44;;;;;;;5.05;3.40;;;;;;;37.96;26.00;102024.75;5138364;27;20038;-58
2021/06/08 09:21:14;;;;;;;3.10;2.80;;;;;;;38.01;26.38;102025.59;5120323;27;20430;-58
2021/06/08 09:23:40;;;;;;;3.33;2.35;;;;;;;38.05;25.99;102025.88;5138106;27;20050;-58
2021/06/08 09:26:05;;;;;;;2.35;2.05;;;;;;;38.16;25.70;102028.38;5138061;27;20043;-58
2021/06/08 09:28:33;;;;;;;5.15;1.90;;;;;;;38.26;25.69;102027.47;5138299;27;20047;-58
2021/06/08 09:31:19;;;;;;;5.22;3.00;;;;;;;38.36;25.97;102028.31;5120422;27;20017;-59
2021/06/08 09:33:47;;;;;;;4.57;2.40;;;;;;;38.38;25.30;102020.47;5138045;27;20023;-59
2021/06/08 09:36:17;;;;;;;4.20;3.20;;;;;;;38.45;25.96;102022.94;5138731;27;20031;-58
2021/06/08 09:38:58;;;;;;;5.13;2.33;;;;;;;38.57;25.67;102028.22;5119875;27;20015;-58
2021/06/08 09:41:26;;;;;;;2.85;2.38;;;;;;;38.66;25.04;102015.31;5138083;27;20038;-58
2021/06/08 09:44:27;;;;;;;3.33;2.65;;;;;;;38.77;25.53;102017.81;5137749;27;20474;-58
2021/06/08 09:46:55;;;;;;;3.70;2.80;;;;;;;38.84;25.09;102012.69;5018301;28;20021;-58
2021/06/08 09:49:30;;;;;;;3.08;2.40;;;;;;;38.94;24.10;102017.41;5034977;28;20087;-58
2021/06/08 09:51:59;;;;;;;4.15;2.28;;;;;;;39.00;24.51;102007.84;5017331;28;20080;-58
2021/06/08 09:54:30;;;;;;;2.53;1.42;;;;;;;39.03;23.22;102021.28;4998639;28;20048;-59
2021/06/08 09:57:19;;;;;;;3.10;1.73;;;;;;;39.12;23.50;102013.91;5014793;28;20126;-58
2021/06/08 09:59:55;;;;;;;3.42;1.73;;;;;;;39.26;23.25;102009.34;4998395;28;20038;-58
2021/06/08 10:02:50;;;;;;;2.30;1.80;;;;;;;39.63;22.68;102008.75;5021561;28;20034;-59
2021/06/08 10:05:29;;;;;;;1999.90;999.90;;;;;;;40.16;23.14;102009.66;5019651;28;20498;-59
2021/06/08 10:08:00;;;;;;;1999.90;999.90;;;;;;;40.85;22.76;102005.41;5034140;28;20064;-59
2021/06/08 10:10:36;;;;;;;48.28;45.85;;;;;;;41.62;22.05;101999.13;5034604;28;20115;-59
2021/06/08 10:13:10;;;;;;;3.17;2.90;;;;;;;42.74;20.96;102009.88;5034411;28;20044;-58
2021/06/08 10:15:49;;;;;;;2.58;2.38;;;;;;;43.61;20.32;101998.13;5033072;28;20466;-59
2021/06/08 10:18:15;;;;;;;2.47;2.10;;;;;;;43.38;20.47;102003.00;5017351;28;20478;-59
2021/06/08 10:20:52;;;;;;;1.75;1.65;;;;;;;42.83;20.56;101998.66;5079108;27;20038;-59
2021/06/08 10:23:29;;;;;;;3.30;3.03;;;;;;;42.36;20.50;101999.97;5117181;27;20150;-59
2021/06/08 10:26:04;;;;;;;3.75;3.55;;;;;;;42.09;21.06;102005.59;5137425;27;20042;-58
2021/06/08 10:28:29;;;;;;;7.47;5.40;;;;;;;41.94;21.17;102003.06;5118956;27;20019;-59
2021/06/08 10:30:56;;;;;;;4.72;3.85;;;;;;;41.94;21.28;101997.41;5137353;27;20034;-59
2021/06/08 10:33:22;;;;;;;4.32;3.55;;;;;;;42.02;20.75;101999.53;5119379;27;20019;-58
2021/06/08 10:35:49;;;;;;;3.47;3.17;;;;;;;42.08;20.72;102004.75;5118781;27;20503;-58
2021/06/08 10:38:15;;;;;;;3.40;2.58;;;;;;;42.14;20.58;102008.28;5119707;27;20026;-58
2021/06/08 10:40:42;;;;;;;4.05;3.58;;;;;;;42.21;20.39;102003.97;5119207;27;20019;-59
2021/06/08 10:43:30;;;;;;;3.80;3.17;;;;;;;42.38;20.23;102002.47;5119443;27;20031;-58
2021/06/08 10:45:56;;;;;;;3.38;2.40;;;;;;;42.51;20.32;101996.81;5139170;27;20049;-58
2021/06/08 10:48:40;;;;;;;4.07;3.10;;;;;;;42.64;20.02;101986.69;5138099;27;20027;-58
2021/06/08 10:51:14;;;;;;;3.35;2.38;;;;;;;42.75;19.69;101988.97;5120030;27;20467;-59
2021/06/08 10:53:46;;;;;;;4.57;4.18;;;;;;;42.84;19.59;101984.25;5130996;27;20088;-59
2021/06/08 10:56:28;;;;;;;2.60;2.40;;;;;;;42.88;19.20;101990.09;5118381;27;20027;-58
2021/06/08 10:58:57;;;;;;;4.05;2.30;;;;;;;42.89;19.56;101986.94;5136809;27;20035;-59
2021/06/08 11:04:06;;;;;;;3.15;2.58;;;;;;;43.14;19.35;101976.19;5136849;27;20061;-59
2021/06/08 11:06:37;;;;;;;4.50;1.77;;;;;;;43.25;19.48;101977.63;5136416;27;20023;-59
2021/06/08 11:09:02;;;;;;;2.38;2.17;;;;;;;43.33;19.58;101974.03;5136176;27;20042;-59
2021/06/08 11:11:58;;;;;;;2.10;1.90;;;;;;;43.41;18.93;101970.47;5136581;27;20023;-59
2021/06/08 11:15:14;;;;;;;2.90;1.73;;;;;;;43.46;19.39;101978.81;5117994;27;20030;-59
2021/06/08 11:17:36;;;;;;;2.47;1.95;;;;;;;43.47;19.02;101972.81;5125105;27;20027;-59
2021/06/08 11:20:11;;;;;;;1.92;1.73;;;;;;;43.43;19.01;101974.63;5135843;27;20027;-59
2021/06/08 11:22:58;;;;;;;3.25;1.67;;;;;;;43.48;19.20;101973.66;5135587;27;20558;-59
2021/06/08 11:25:41;;;;;;;1.85;1.63;;;;;;;43.55;18.88;101976.88;5117437;27;20030;-59
2021/06/08 11:28:17;;;;;;;2.22;1.70;;;;;;;43.62;18.82;101982.88;5132496;27;20028;-59
2021/06/08 11:30:53;;;;;;;1.40;1.30;;;;;;;43.62;18.67;101977.22;5122962;27;20131;-58